Terminal Aerodrome Forecast
Issued by NWS

Home | Current Version | Previous Version | Text Only | Print | Product List | Glossary On
Versions: 1 2 3 4 5 6 7 8 9 10 11 12 13 14 15 16
000
FTUS46 KSEW 291100
TAFHQM
TAF
KHQM 291120Z 2912/3012 00000KT P6SM OVC003
      TEMPO 2912/2916 3SM BR
     FM291700 25010KT P6SM SCT005
     FM292000 30010KT P6SM SKC
     FM300600 24005KT P6SM BKN005=

USA.gov is the U.S. government's official web portal to all federal, state and local government web resources and services.